Summerfield, Florida
Current Conditions -  °F | °C
As of 5:50 PM on Thursday 23 Oct 2014 (Local Time) from KOCF Reporting Station
Clear Clear  
Wind Chill: 75°   Ceiling: Unl
Heat Index: 75°   Visibility: 10mi
Dew Point: 50°   Wind: 6mph
Humidity: 41%   Direction: 50°NE
Pressure: 29.96"   Gusts: NA
Location:  29.01°N, 82.03°W
Report Text: KOCF 232150Z 05005KT 10SM CLR 24/10 A2996
Loading
Personal Weather Stations






























Interactive Weather Map
Tropical Storm Tracking
New forecast layout! Learn more

10-Day Weather Forecast

Advertisements
Track Severe Weather on mobile